createdAt,value
2018-10-12T00:00:54.903Z,16.92
2018-10-12T00:03:22.631Z,16.90
2018-10-12T00:05:49.884Z,16.86
2018-10-12T00:08:17.168Z,16.89
2018-10-12T00:10:44.462Z,17.02
2018-10-12T00:13:11.816Z,17.10
2018-10-12T00:15:39.082Z,17.18
2018-10-12T00:18:06.560Z,17.31
2018-10-12T00:20:34.011Z,17.40
2018-10-12T00:23:01.332Z,17.42
2018-10-12T00:25:28.645Z,17.41
2018-10-12T00:27:55.972Z,17.36
2018-10-12T00:30:23.223Z,17.29
2018-10-12T00:32:50.560Z,17.29
2018-10-12T00:35:17.884Z,17.22
2018-10-12T00:37:45.195Z,17.24
2018-10-12T00:40:12.534Z,17.35
2018-10-12T00:42:39.890Z,17.29
2018-10-12T00:45:07.168Z,17.29
2018-10-12T00:47:34.438Z,17.27
2018-10-12T00:50:01.780Z,17.24
2018-10-12T00:52:29.062Z,17.19
2018-10-12T00:54:56.527Z,17.13
2018-10-12T00:57:24.036Z,17.11
2018-10-12T00:59:51.356Z,17.16
2018-10-12T01:02:18.674Z,17.05
2018-10-12T01:04:46.055Z,16.97
2018-10-12T01:07:13.508Z,16.69
2018-10-12T01:09:40.916Z,16.66
2018-10-12T01:12:23.276Z,16.15
2018-10-12T01:14:54.405Z,16.07
2018-10-12T01:17:21.918Z,15.92
2018-10-12T01:19:49.322Z,15.79
2018-10-12T01:22:16.800Z,15.64
2018-10-12T01:24:44.178Z,15.58
2018-10-12T01:27:11.731Z,15.67
2018-10-12T01:29:39.108Z,15.76
2018-10-12T01:32:06.389Z,15.73
2018-10-12T01:34:33.669Z,15.75
2018-10-12T01:37:00.929Z,15.75
2018-10-12T01:39:28.298Z,15.77
2018-10-12T01:41:55.631Z,15.77
2018-10-12T01:45:47.509Z,15.73
2018-10-12T01:48:14.834Z,15.56
2018-10-12T01:50:42.203Z,15.51
2018-10-12T01:53:09.446Z,15.49
2018-10-12T01:55:36.760Z,15.43
2018-10-12T01:58:04.020Z,15.37
2018-10-12T02:00:31.406Z,15.37
2018-10-12T02:02:58.681Z,15.32
2018-10-12T02:05:26.140Z,15.34
2018-10-12T02:07:53.560Z,15.29
2018-10-12T02:10:20.888Z,15.32
2018-10-12T02:12:48.180Z,15.35
2018-10-12T02:15:15.627Z,15.38
2018-10-12T02:17:42.948Z,15.38
2018-10-12T02:20:10.722Z,15.39
2018-10-12T02:22:38.061Z,15.38
2018-10-12T02:25:05.986Z,15.20
2018-10-12T02:27:33.226Z,15.37
2018-10-12T02:30:00.517Z,15.34
2018-10-12T02:32:27.934Z,15.22
2018-10-12T02:34:55.250Z,15.16
2018-10-12T02:37:23.053Z,15.10
2018-10-12T02:39:50.380Z,15.06
2018-10-12T02:42:17.706Z,14.92
2018-10-12T02:44:44.994Z,14.82
2018-10-12T02:47:12.330Z,14.76
2018-10-12T02:49:39.705Z,14.75
2018-10-12T02:52:06.984Z,14.74
2018-10-12T02:54:34.326Z,14.81
2018-10-12T02:57:02.201Z,14.82
2018-10-12T02:59:29.446Z,14.85
2018-10-12T03:01:56.726Z,14.82
2018-10-12T03:04:24.040Z,14.76
2018-10-12T03:06:51.340Z,14.70
2018-10-12T03:09:18.695Z,14.63
2018-10-12T03:11:45.955Z,14.68
2018-10-12T03:14:13.229Z,14.68
2018-10-12T03:16:40.573Z,14.70
2018-10-12T03:19:07.792Z,14.68
2018-10-12T03:21:35.074Z,14.64
2018-10-12T03:24:02.373Z,14.64
2018-10-12T03:26:29.655Z,14.61
2018-10-12T03:28:56.961Z,14.64
2018-10-12T03:31:24.468Z,14.64
2018-10-12T03:33:51.822Z,14.81
2018-10-12T03:36:19.158Z,14.82
2018-10-12T03:38:46.552Z,14.87
2018-10-12T03:41:13.915Z,14.90
2018-10-12T03:43:41.197Z,14.89
2018-10-12T03:46:08.477Z,14.81
2018-10-12T03:48:35.757Z,14.78
2018-10-12T03:51:03.106Z,14.75
2018-10-12T03:53:30.472Z,14.73
2018-10-12T03:55:57.731Z,14.72
2018-10-12T03:58:25.024Z,14.68
2018-10-12T04:00:52.348Z,14.70
2018-10-12T04:03:19.808Z,14.72
2018-10-12T04:05:47.095Z,14.66
2018-10-12T04:08:14.422Z,14.67
2018-10-12T04:10:41.719Z,14.56
2018-10-12T04:13:09.005Z,14.28
2018-10-12T04:15:36.364Z,14.23
2018-10-12T04:18:03.668Z,14.21
2018-10-12T04:20:30.949Z,14.27
2018-10-12T04:22:58.254Z,14.37
2018-10-12T04:25:25.567Z,14.50
2018-10-12T04:27:52.907Z,14.56
2018-10-12T04:30:20.180Z,14.62
2018-10-12T04:32:47.491Z,14.74
2018-10-12T04:35:15.083Z,14.77
2018-10-12T04:37:42.774Z,14.72
2018-10-12T04:40:21.667Z,14.60
2018-10-12T04:42:48.930Z,14.50
2018-10-12T04:45:16.338Z,14.45
2018-10-12T04:47:43.780Z,14.43
2018-10-12T04:50:11.188Z,14.22
2018-10-12T04:52:38.619Z,14.09
2018-10-12T04:55:05.895Z,14.19
2018-10-12T04:57:33.923Z,14.12
2018-10-12T05:00:01.227Z,14.01
2018-10-12T05:02:28.565Z,13.95
2018-10-12T05:04:55.890Z,13.99
2018-10-12T05:07:23.246Z,13.90
2018-10-12T05:09:50.520Z,13.81
2018-10-12T05:12:17.737Z,13.69
2018-10-12T05:14:45.036Z,13.63
2018-10-12T05:17:12.383Z,13.64
2018-10-12T05:19:39.830Z,13.62
2018-10-12T05:22:07.211Z,13.58
2018-10-12T05:24:34.510Z,13.47
2018-10-12T05:27:01.824Z,13.54
2018-10-12T05:29:29.148Z,13.43
2018-10-12T05:31:56.450Z,13.47
2018-10-12T05:34:23.691Z,13.46
2018-10-12T05:36:50.960Z,13.40
2018-10-12T05:39:18.215Z,13.36
2018-10-12T05:41:45.539Z,13.35
2018-10-12T05:44:12.848Z,13.37
2018-10-12T05:46:40.373Z,13.34
2018-10-12T05:49:19.234Z,13.32
2018-10-12T05:51:46.588Z,13.23
2018-10-12T05:54:14.335Z,13.19
2018-10-12T05:56:42.119Z,13.29
2018-10-12T05:59:09.433Z,13.33
2018-10-12T06:01:36.779Z,13.36
2018-10-12T06:04:04.116Z,13.32
2018-10-12T06:06:31.579Z,13.23
2018-10-12T06:08:58.909Z,13.24
2018-10-12T06:11:26.290Z,13.21
2018-10-12T06:13:53.418Z,13.26
2018-10-12T06:16:21.029Z,13.37
2018-10-12T06:18:48.465Z,13.44
2018-10-12T06:21:15.915Z,13.52
2018-10-12T06:23:43.224Z,13.58
2018-10-12T06:26:10.680Z,13.69
2018-10-12T06:28:38.171Z,13.71
2018-10-12T06:31:06.130Z,13.83
2018-10-12T06:33:33.454Z,13.80
2018-10-12T06:36:02.458Z,13.98
2018-10-12T06:38:29.841Z,14.31
2018-10-12T06:40:57.188Z,14.76
2018-10-12T06:43:24.494Z,15.24
2018-10-12T06:45:51.780Z,15.80
2018-10-12T06:48:19.188Z,16.48
2018-10-12T06:50:46.507Z,17.40
2018-10-12T06:53:13.799Z,18.21
2018-10-12T06:55:41.329Z,18.79
2018-10-12T06:58:08.631Z,19.33
2018-10-12T07:00:36.170Z,20.21
2018-10-12T07:03:03.614Z,20.72
2018-10-12T07:05:31.034Z,21.44
2018-10-12T07:07:58.974Z,22.17
2018-10-12T07:10:26.341Z,22.45
2018-10-12T07:12:53.660Z,22.55
2018-10-12T07:15:20.953Z,22.45
2018-10-12T07:17:48.262Z,23.48
2018-10-12T07:20:15.641Z,24.12
2018-10-12T07:22:42.913Z,24.49
2018-10-12T07:25:10.258Z,24.61
2018-10-12T07:27:37.653Z,24.83
2018-10-12T07:30:05.452Z,25.33
2018-10-12T07:32:32.729Z,25.08
2018-10-12T07:34:59.993Z,25.03
2018-10-12T07:37:27.300Z,25.66
2018-10-12T07:39:54.538Z,26.35
2018-10-12T07:42:21.792Z,26.29
2018-10-12T07:44:49.088Z,26.21
2018-10-12T07:47:16.375Z,26.71
2018-10-12T07:49:43.620Z,27.24
2018-10-12T07:52:10.872Z,27.88
2018-10-12T07:54:38.225Z,27.85
2018-10-12T07:57:11.231Z,28.00
2018-10-12T07:59:39.610Z,28.34
2018-10-12T08:02:08.404Z,28.15
2018-10-12T08:04:35.800Z,28.15
2018-10-12T08:07:03.225Z,27.88
2018-10-12T08:09:30.602Z,27.40
2018-10-12T08:11:57.884Z,27.23
2018-10-12T08:14:25.299Z,26.96
2018-10-12T08:16:52.788Z,26.91
2018-10-12T08:19:20.169Z,27.18
2018-10-12T08:21:47.481Z,27.26
2018-10-12T08:24:14.856Z,27.63
2018-10-12T08:26:42.158Z,27.57
2018-10-12T08:29:09.426Z,27.92
2018-10-12T08:31:36.872Z,27.73
2018-10-12T08:34:04.090Z,27.69
2018-10-12T08:36:31.463Z,27.92
2018-10-12T08:38:58.848Z,27.85
2018-10-12T08:41:26.184Z,28.03
2018-10-12T08:43:53.489Z,27.66
2018-10-12T08:46:21.779Z,27.67
2018-10-12T08:48:49.076Z,27.66
2018-10-12T08:51:16.424Z,27.83
2018-10-12T08:53:43.780Z,28.30
2018-10-12T08:56:11.086Z,28.18
2018-10-12T08:58:38.428Z,28.46
2018-10-12T09:01:06.177Z,28.30
2018-10-12T09:03:33.499Z,27.98
2018-10-12T09:06:00.830Z,28.01
2018-10-12T09:08:28.215Z,27.74
2018-10-12T09:10:55.489Z,28.21
2018-10-12T09:13:22.775Z,28.54
2018-10-12T09:15:50.121Z,28.97
2018-10-12T09:18:17.503Z,28.48
2018-10-12T09:20:44.805Z,28.02
2018-10-12T09:23:12.709Z,27.89
2018-10-12T09:25:40.028Z,28.34
2018-10-12T09:28:07.351Z,28.73
2018-10-12T09:30:34.676Z,29.27
2018-10-12T09:33:01.981Z,29.35
2018-10-12T09:35:29.265Z,29.27
2018-10-12T09:37:56.566Z,29.51
2018-10-12T09:40:23.912Z,29.32
2018-10-12T09:42:51.202Z,29.58
2018-10-12T09:45:18.507Z,29.61
2018-10-12T09:47:45.928Z,29.70
2018-10-12T09:50:13.266Z,29.30
2018-10-12T09:52:40.648Z,29.35
2018-10-12T09:55:07.958Z,29.48
2018-10-12T09:57:36.370Z,29.30
2018-10-12T10:00:07.803Z,28.93
2018-10-12T10:02:40.366Z,28.70
2018-10-12T10:05:08.820Z,28.82
2018-10-12T10:07:36.530Z,29.38
2018-10-12T10:10:04.044Z,29.53
2018-10-12T10:12:31.503Z,29.38
2018-10-12T10:15:08.128Z,29.23
2018-10-12T10:17:35.428Z,29.24
2018-10-12T10:20:02.760Z,29.67
2018-10-12T10:22:30.129Z,30.16
2018-10-12T10:24:57.785Z,29.69
2018-10-12T10:27:26.476Z,28.68
2018-10-12T10:29:53.810Z,28.86
2018-10-12T10:32:21.146Z,28.88
2018-10-12T10:34:48.436Z,29.14
2018-10-12T10:37:15.708Z,29.41
2018-10-12T10:39:43.010Z,28.84
2018-10-12T10:42:10.907Z,29.15
2018-10-12T10:44:38.265Z,29.13
2018-10-12T10:47:05.725Z,28.79
2018-10-12T10:49:33.028Z,28.92
2018-10-12T10:52:00.334Z,28.90
2018-10-12T10:54:27.634Z,28.88
2018-10-12T10:57:00.761Z,29.12
2018-10-12T10:59:28.373Z,28.81
2018-10-12T11:01:55.644Z,28.71
2018-10-12T11:04:22.909Z,28.68
2018-10-12T11:06:50.244Z,29.03
2018-10-12T11:09:17.635Z,29.50
2018-10-12T11:11:44.915Z,29.87
2018-10-12T11:14:12.184Z,29.87
2018-10-12T11:16:39.486Z,29.65
2018-10-12T11:19:06.774Z,29.03
2018-10-12T11:21:34.074Z,28.94
2018-10-12T11:24:01.395Z,29.18
2018-10-12T11:26:28.760Z,28.92
2018-10-12T11:28:56.065Z,28.97
2018-10-12T11:31:23.386Z,29.36
2018-10-12T11:33:50.717Z,29.26
2018-10-12T11:36:18.068Z,29.19
2018-10-12T11:38:45.339Z,29.06
2018-10-12T11:41:12.680Z,28.97
2018-10-12T11:43:40.390Z,29.14
2018-10-12T11:46:07.759Z,28.71
2018-10-12T11:48:35.074Z,28.51
2018-10-12T11:51:02.372Z,28.22
2018-10-12T11:53:29.741Z,28.33
2018-10-12T11:55:57.047Z,28.20
2018-10-12T11:58:24.734Z,27.82
2018-10-12T12:00:52.063Z,28.22
2018-10-12T12:03:19.338Z,27.88
2018-10-12T12:05:46.616Z,28.02
2018-10-12T12:08:13.858Z,28.09
2018-10-12T12:10:41.234Z,27.81
2018-10-12T12:13:08.528Z,27.79
2018-10-12T12:15:36.004Z,27.80
2018-10-12T12:18:03.377Z,27.52
2018-10-12T12:20:30.701Z,27.28
2018-10-12T12:22:58.003Z,27.42
2018-10-12T12:25:25.345Z,27.34
2018-10-12T12:27:52.726Z,27.61
2018-10-12T12:30:20.287Z,28.03
2018-10-12T12:32:47.722Z,28.06
2018-10-12T12:35:15.293Z,28.41
2018-10-12T12:37:42.457Z,28.38
2018-10-12T12:40:09.719Z,28.19
2018-10-12T12:42:37.183Z,28.08
2018-10-12T12:45:05.547Z,28.26
2018-10-12T12:47:33.073Z,28.34
2018-10-12T12:50:00.313Z,28.09
2018-10-12T12:52:27.627Z,28.08
2018-10-12T12:54:54.950Z,28.07
2018-10-12T12:57:22.184Z,28.17
2018-10-12T12:59:49.502Z,28.35
2018-10-12T13:02:16.729Z,27.95
2018-10-12T13:04:44.019Z,28.13
2018-10-12T13:07:11.377Z,28.49
2018-10-12T13:09:38.646Z,28.33
2018-10-12T13:12:05.985Z,27.69
2018-10-12T13:14:33.295Z,27.69
2018-10-12T13:17:00.589Z,28.10
2018-10-12T13:19:27.886Z,28.16
2018-10-12T13:21:55.243Z,27.85
2018-10-12T13:24:22.532Z,27.73
2018-10-12T13:26:49.849Z,28.37
2018-10-12T13:29:17.102Z,28.40
2018-10-12T13:31:44.423Z,28.21
2018-10-12T13:34:11.754Z,27.77
2018-10-12T13:36:39.193Z,28.12
2018-10-12T13:39:09.458Z,28.64
2018-10-12T13:41:37.064Z,28.14
2018-10-12T13:44:04.389Z,28.09
2018-10-12T13:46:31.694Z,28.58
2018-10-12T13:48:58.986Z,29.15
2018-10-12T13:51:26.325Z,28.73
2018-10-12T13:53:53.583Z,28.49
2018-10-12T13:56:20.832Z,28.36
2018-10-12T13:58:48.202Z,28.93
2018-10-12T14:01:15.432Z,29.23
2018-10-12T14:03:42.689Z,28.80
2018-10-12T14:06:09.974Z,28.49
2018-10-12T14:08:37.249Z,27.99
2018-10-12T14:11:04.525Z,27.99
2018-10-12T14:13:31.809Z,27.90
2018-10-12T14:15:59.096Z,27.93
2018-10-12T14:18:26.493Z,27.56
2018-10-12T14:20:53.740Z,27.38
2018-10-12T14:23:21.100Z,27.47
2018-10-12T14:25:48.397Z,27.56
2018-10-12T14:28:15.706Z,27.86
2018-10-12T14:30:42.992Z,27.39
2018-10-12T14:33:10.288Z,27.27
2018-10-12T14:35:37.603Z,27.59
2018-10-12T14:38:05.079Z,27.53
2018-10-12T14:40:32.388Z,27.31
2018-10-12T14:42:59.698Z,27.24
2018-10-12T14:45:26.990Z,27.63
2018-10-12T14:49:18.807Z,27.99
2018-10-12T14:51:46.233Z,27.80
2018-10-12T14:54:14.062Z,27.69
2018-10-12T14:56:41.328Z,27.53
2018-10-12T14:59:08.711Z,27.38
2018-10-12T15:01:35.946Z,27.44
2018-10-12T15:04:03.198Z,27.56
2018-10-12T15:06:30.535Z,27.56
2018-10-12T15:08:57.844Z,27.63
2018-10-12T15:11:25.225Z,27.88
2018-10-12T15:13:52.504Z,28.02
2018-10-12T15:16:19.827Z,27.59
2018-10-12T15:18:47.110Z,27.22
2018-10-12T15:21:14.622Z,26.92
2018-10-12T15:23:41.935Z,26.73
2018-10-12T15:26:09.266Z,26.50
2018-10-12T15:28:36.712Z,26.65
2018-10-12T15:31:04.109Z,26.77
2018-10-12T15:33:31.441Z,27.08
2018-10-12T15:36:00.327Z,27.54
2018-10-12T15:38:27.694Z,27.79
2018-10-12T15:40:54.987Z,27.88
2018-10-12T15:43:22.362Z,27.59
2018-10-12T15:45:49.680Z,27.28
2018-10-12T15:48:16.977Z,27.33
2018-10-12T15:50:44.287Z,27.27
2018-10-12T15:53:11.604Z,27.24
2018-10-12T15:55:38.916Z,26.99
2018-10-12T15:58:06.212Z,27.01
2018-10-12T16:00:33.445Z,26.95
2018-10-12T16:03:00.710Z,26.65
2018-10-12T16:05:28.004Z,25.97
2018-10-12T16:07:55.298Z,25.82
2018-10-12T16:10:22.591Z,25.48
2018-10-12T16:12:50.015Z,25.28
2018-10-12T16:15:17.257Z,25.07
2018-10-12T16:19:08.976Z,24.74
2018-10-12T16:21:36.219Z,24.50
2018-10-12T16:24:11.654Z,24.46
2018-10-12T16:26:39.029Z,24.54
2018-10-12T16:29:06.734Z,24.68
2018-10-12T16:31:33.914Z,24.56
2018-10-12T16:34:01.153Z,24.46
2018-10-12T16:36:28.523Z,24.50
2018-10-12T16:38:55.815Z,24.44
2018-10-12T16:41:23.194Z,24.39
2018-10-12T16:43:50.532Z,24.31
2018-10-12T16:46:17.823Z,24.24
2018-10-12T16:48:45.146Z,24.15
2018-10-12T16:51:12.393Z,24.09
2018-10-12T16:53:39.711Z,23.96
2018-10-12T16:56:07.138Z,23.87
2018-10-12T16:58:34.601Z,23.78
2018-10-12T17:01:01.914Z,23.78
2018-10-12T17:03:29.189Z,23.73
2018-10-12T17:05:56.503Z,23.66
2018-10-12T17:08:23.808Z,23.58
2018-10-12T17:12:15.661Z,23.45
2018-10-12T17:14:43.145Z,23.30
2018-10-12T17:17:10.494Z,23.28
2018-10-12T17:19:37.933Z,23.16
2018-10-12T17:22:05.283Z,23.17
2018-10-12T17:24:32.795Z,23.16
2018-10-12T17:27:00.121Z,23.11
2018-10-12T17:29:27.407Z,22.98
2018-10-12T17:31:54.705Z,22.85
2018-10-12T17:34:21.979Z,22.71
2018-10-12T17:36:49.294Z,22.59
2018-10-12T17:39:16.599Z,22.44
2018-10-12T17:41:44.104Z,22.40
2018-10-12T17:44:11.385Z,22.15
2018-10-12T17:46:38.659Z,21.98
2018-10-12T17:49:06.028Z,21.87
2018-10-12T17:51:33.360Z,21.71
2018-10-12T17:54:00.626Z,21.63
2018-10-12T17:56:27.936Z,21.60
2018-10-12T17:58:55.325Z,21.46
2018-10-12T18:01:22.734Z,21.19
2018-10-12T18:03:49.981Z,21.12
2018-10-12T18:06:17.311Z,21.02
2018-10-12T18:08:44.712Z,20.95
2018-10-12T18:11:12.063Z,20.93
2018-10-12T18:13:39.439Z,20.93
2018-10-12T18:16:06.781Z,20.80
2018-10-12T18:18:34.046Z,20.72
2018-10-12T18:21:01.597Z,20.64
2018-10-12T18:23:29.081Z,20.64
2018-10-12T18:25:56.532Z,20.53
2018-10-12T18:28:23.810Z,20.50
2018-10-12T18:30:51.171Z,20.38
2018-10-12T18:33:18.555Z,20.36
2018-10-12T18:35:45.947Z,20.33
2018-10-12T18:38:13.375Z,20.29
2018-10-12T18:40:40.697Z,20.26
2018-10-12T18:43:08.101Z,20.17
2018-10-12T18:45:35.361Z,20.17
2018-10-12T18:48:02.871Z,20.11
2018-10-12T18:50:29.954Z,20.10
2018-10-12T18:52:57.316Z,19.95
2018-10-12T18:55:24.569Z,19.91
2018-10-12T18:57:51.831Z,19.97
2018-10-12T19:00:19.121Z,19.92
2018-10-12T19:02:46.408Z,19.87
2018-10-12T19:05:13.695Z,19.78
2018-10-12T19:07:41.027Z,19.67
2018-10-12T19:10:08.304Z,19.57
2018-10-12T19:12:35.625Z,19.59
2018-10-12T19:15:02.920Z,19.49
2018-10-12T19:17:30.220Z,19.47
2018-10-12T19:19:57.499Z,19.36
2018-10-12T19:22:24.752Z,19.36
2018-10-12T19:24:52.048Z,19.30
2018-10-12T19:27:19.425Z,19.19
2018-10-12T19:29:46.755Z,19.08
2018-10-12T19:32:14.075Z,18.97
2018-10-12T19:34:41.323Z,18.86
2018-10-12T19:37:08.613Z,18.66
2018-10-12T19:39:35.927Z,18.42
2018-10-12T19:42:03.256Z,18.25
2018-10-12T19:44:31.264Z,18.15
2018-10-12T19:47:01.671Z,18.15
2018-10-12T19:49:29.025Z,18.19
2018-10-12T19:51:56.323Z,18.12
2018-10-12T19:54:23.611Z,18.08
2018-10-12T19:56:50.946Z,18.00
2018-10-12T19:59:19.055Z,17.95
2018-10-12T20:01:46.355Z,18.05
2018-10-12T20:04:13.614Z,18.05
2018-10-12T20:06:40.968Z,18.07
2018-10-12T20:09:10.068Z,18.07
2018-10-12T20:11:37.474Z,18.00
2018-10-12T20:14:04.844Z,18.07
2018-10-12T20:16:32.079Z,18.03
2018-10-12T20:18:59.347Z,17.99
2018-10-12T20:21:26.724Z,17.94
2018-10-12T20:23:54.048Z,17.84
2018-10-12T20:26:21.340Z,17.75
2018-10-12T20:28:48.594Z,17.59
2018-10-12T20:31:15.861Z,17.48
2018-10-12T20:33:43.123Z,17.40
2018-10-12T20:36:10.715Z,17.31
2018-10-12T20:38:38.085Z,17.25
2018-10-12T20:41:05.319Z,17.29
2018-10-12T20:43:32.583Z,17.33
2018-10-12T20:45:59.914Z,17.36
2018-10-12T20:48:27.162Z,17.26
2018-10-12T20:50:54.449Z,17.24
2018-10-12T20:53:21.709Z,17.16
2018-10-12T20:55:49.053Z,17.15
2018-10-12T20:58:16.742Z,17.16
2018-10-12T21:00:44.506Z,17.15
2018-10-12T21:03:11.829Z,17.03
2018-10-12T21:05:39.116Z,17.03
2018-10-12T21:08:06.378Z,16.84
2018-10-12T21:10:33.680Z,16.91
2018-10-12T21:13:01.010Z,16.88
2018-10-12T21:15:28.290Z,16.87
2018-10-12T21:17:55.606Z,16.86
2018-10-12T21:20:22.807Z,16.76
2018-10-12T21:22:50.088Z,16.81
2018-10-12T21:25:17.384Z,16.71
2018-10-12T21:27:44.682Z,16.79
2018-10-12T21:30:11.952Z,16.71
2018-10-12T21:32:39.146Z,16.72
2018-10-12T21:36:30.906Z,16.75
2018-10-12T21:38:58.230Z,16.73
2018-10-12T21:41:25.480Z,16.73
2018-10-12T21:43:52.864Z,16.79
2018-10-12T21:46:20.148Z,16.82
2018-10-12T21:48:47.463Z,16.83
2018-10-12T21:51:14.768Z,16.79
2018-10-12T21:53:42.064Z,16.83
2018-10-12T21:56:09.325Z,16.79
2018-10-12T21:58:36.629Z,16.69
2018-10-12T22:01:04.831Z,16.65
2018-10-12T22:03:33.412Z,16.52
2018-10-12T22:06:00.672Z,16.43
2018-10-12T22:08:33.525Z,16.37
2018-10-12T22:11:00.941Z,16.35
2018-10-12T22:13:28.274Z,16.30
2018-10-12T22:15:55.607Z,16.34
2018-10-12T22:18:22.878Z,16.31
2018-10-12T22:20:50.330Z,16.27
2018-10-12T22:23:17.576Z,16.23
2018-10-12T22:25:44.973Z,16.22
2018-10-12T22:28:12.245Z,16.24
2018-10-12T22:30:39.588Z,16.21
2018-10-12T22:33:06.862Z,16.12
2018-10-12T22:35:34.124Z,16.09
2018-10-12T22:38:01.526Z,16.09
2018-10-12T22:40:28.867Z,16.13
2018-10-12T22:42:56.201Z,16.13
2018-10-12T22:45:23.945Z,16.13
2018-10-12T22:47:51.185Z,16.18
2018-10-12T22:50:18.463Z,16.12
2018-10-12T22:52:45.748Z,16.17
2018-10-12T22:55:12.990Z,16.13
2018-10-12T22:57:40.256Z,16.09
2018-10-12T23:00:07.765Z,15.97
2018-10-12T23:02:35.024Z,15.95
2018-10-12T23:05:02.344Z,15.98
2018-10-12T23:07:29.605Z,15.92
2018-10-12T23:09:56.907Z,15.83
2018-10-12T23:12:24.187Z,15.81
2018-10-12T23:14:51.545Z,15.68
2018-10-12T23:17:18.866Z,15.62
2018-10-12T23:19:46.105Z,15.62
2018-10-12T23:22:13.427Z,15.53
2018-10-12T23:24:40.745Z,15.50
2018-10-12T23:27:08.058Z,15.50
2018-10-12T23:29:35.336Z,15.51
2018-10-12T23:32:02.642Z,15.55
2018-10-12T23:34:29.901Z,15.54
2018-10-12T23:36:57.206Z,15.49
2018-10-12T23:39:24.530Z,15.40
2018-10-12T23:41:51.852Z,15.34
2018-10-12T23:44:19.172Z,15.32
2018-10-12T23:46:46.401Z,15.32
2018-10-12T23:49:13.689Z,15.38
2018-10-12T23:51:41.032Z,15.36
2018-10-12T23:54:08.309Z,15.33
2018-10-12T23:56:35.658Z,15.30
